Wetterverlauf

Letzte Wetterlage 31.10.2014 14:52
Wetterdiagramm
Tabellarische Darstellung
Datum Temperatur Windchill Feuchte Luftdruck Windrichtung Windstärke Niederschlag
31.10.2014 14:52 19,4 °C 19,4 °C 84 % 1021,8 hPa 67 0.0 0,00 mm
31.10.2014 14:32 20,1 °C 20,1 °C 85 % 1021,8 hPa 67 0.0 0,00 mm
31.10.2014 14:12 19,9 °C 19,9 °C 83 % 1021,8 hPa 67 0.0 0,00 mm
31.10.2014 13:52 19,4 °C 19,4 °C 82 % 1022,1 hPa 67 0.0 0,00 mm
31.10.2014 13:32 19,1 °C 19,1 °C 84 % 1022,2 hPa 67 0.0 0,00 mm
31.10.2014 13:12 18,8 °C 18,8 °C 86 % 1022,5 hPa 67 0.0 0,00 mm
31.10.2014 12:52 18,2 °C 18,2 °C 85 % 1022,6 hPa 67 0.0 0,00 mm
31.10.2014 12:32 17,9 °C 17,9 °C 87 % 1022,8 hPa 67 0.0 0,00 mm
31.10.2014 12:12 17,9 °C 17,9 °C 87 % 1022,9 hPa 69 0.0 0,00 mm
31.10.2014 11:52 17,6 °C 17,6 °C 85 % 1023,0 hPa 71 0.0 0,00 mm
31.10.2014 11:32 16,7 °C 16,7 °C 86 % 1023,1 hPa 113 0.0 0,00 mm
31.10.2014 11:12 16,0 °C 16,0 °C 91 % 1023,1 hPa 193 0.0 0,00 mm
31.10.2014 10:52 14,8 °C 14,8 °C 95 % 1023,2 hPa 195 0.0 0,00 mm
31.10.2014 10:32 14,3 °C 14,3 °C 95 % 1023,2 hPa 195 0.0 0,00 mm
31.10.2014 10:12 13,7 °C 13,7 °C 97 % 1022,9 hPa 202 0.0 0,00 mm
31.10.2014 09:52 13,1 °C 13,1 °C 97 % 1023,1 hPa 202 0.0 0,00 mm
31.10.2014 09:32 12,7 °C 12,7 °C 99 % 1023,2 hPa 202 0.0 0,00 mm
31.10.2014 09:12 12,3 °C 12,3 °C 100 % 1023,1 hPa 202 0.0 0,00 mm
31.10.2014 08:52 11,3 °C 11,3 °C 100 % 1022,8 hPa 202 0.0 0,00 mm
31.10.2014 08:32 10,7 °C 10,7 °C 100 % 1022,7 hPa 202 0.0 0,00 mm
31.10.2014 08:12 10,4 °C 10,4 °C 100 % 1022,6 hPa 202 0.0 0,00 mm
31.10.2014 07:52 10,2 °C 10,2 °C 100 % 1022,5 hPa 202 0.0 0,00 mm
31.10.2014 07:32 10,0 °C 10,0 °C 100 % 1022,3 hPa 202 0.0 0,00 mm
31.10.2014 07:12 9,9 °C 9,9 °C 100 % 1022,2 hPa 202 0.0 0,00 mm
31.10.2014 06:52 9,9 °C 9,9 °C 100 % 1022,1 hPa 202 0.0 0,00 mm
Empfehlen Sie wetter.com
| Mehr
Neue Wetterwarnung

Neue Niederschlagsmeldung
Neue Meldung
Regen Liveticker
    sehr starker Regen/Gewitter
    starker Regen/Gewitter
    mäßiger bis starker Regen
    mäßiger Regen
    leichter bis mäßiger Regen
    kein Regen